createdAt,value
2022-10-28T00:00:07.774Z,101371.81
2022-10-28T00:02:35.626Z,101360.66
2022-10-28T00:05:04.978Z,101361.44
2022-10-28T00:07:37.787Z,101371.44
2022-10-28T00:10:06.364Z,101385.81
2022-10-28T00:12:36.079Z,101384.28
2022-10-28T00:15:04.793Z,101333.97
2022-10-28T00:17:32.713Z,101350.38
2022-10-28T00:20:00.476Z,101370.06
2022-10-28T00:22:30.008Z,101376.41
2022-10-28T00:24:57.886Z,101373.25
2022-10-28T00:27:25.605Z,101375.66
2022-10-28T00:29:56.925Z,101377.41
2022-10-28T00:32:32.748Z,101383.16
2022-10-28T00:35:12.243Z,101378.31
2022-10-28T00:37:41.945Z,101390.53
2022-10-28T00:40:13.706Z,101393.97
2022-10-28T00:42:42.000Z,101409.31
2022-10-28T00:45:11.403Z,101402.72
2022-10-28T00:47:52.668Z,101423.28
2022-10-28T00:50:40.039Z,101418.22
2022-10-28T00:53:15.415Z,101407.16
2022-10-28T00:55:45.329Z,101402.84
2022-10-28T00:58:14.530Z,101391.16
2022-10-28T01:00:45.444Z,101396.88
2022-10-28T01:03:14.343Z,101370.31
2022-10-28T01:05:44.084Z,101359.91
2022-10-28T01:08:14.194Z,101385.06
2022-10-28T01:11:06.326Z,101389.25
2022-10-28T01:13:45.586Z,101383.81
2022-10-28T01:16:30.726Z,101379.47
2022-10-28T01:19:30.075Z,101370.81
2022-10-28T01:22:21.908Z,101376.69
2022-10-28T01:25:27.548Z,101385.03
2022-10-28T01:28:10.235Z,101365.50
2022-10-28T01:31:05.247Z,101366.38
2022-10-28T01:33:38.074Z,101356.47
2022-10-28T01:36:14.840Z,101348.22
2022-10-28T01:38:52.703Z,101349.09
2022-10-28T01:41:31.583Z,101354.94
2022-10-28T01:44:08.517Z,101346.31
2022-10-28T01:46:41.088Z,101334.34
2022-10-28T01:49:18.668Z,101325.59
2022-10-28T01:51:50.336Z,101322.28
2022-10-28T01:54:21.817Z,101315.66
2022-10-28T01:56:50.443Z,101335.75
2022-10-28T01:59:23.637Z,101343.50
2022-10-28T02:01:54.946Z,101335.13
2022-10-28T02:04:24.342Z,101336.66
2022-10-28T02:07:10.756Z,101331.31
2022-10-28T02:09:52.643Z,101318.25
2022-10-28T02:12:26.512Z,101318.25
2022-10-28T02:15:19.491Z,101320.63
2022-10-28T02:18:09.083Z,101321.53
2022-10-28T02:20:48.210Z,101318.88
2022-10-28T02:23:27.311Z,101309.34
2022-10-28T02:25:59.569Z,101306.78
2022-10-28T02:28:42.218Z,101310.84
2022-10-28T02:31:24.244Z,101313.16
2022-10-28T02:33:57.534Z,101308.81
2022-10-28T02:36:33.601Z,101296.41
2022-10-28T02:39:06.604Z,101292.22
2022-10-28T02:41:39.757Z,101289.03
2022-10-28T02:44:14.977Z,101293.59
2022-10-28T02:46:46.838Z,101297.81
2022-10-28T02:49:16.153Z,101294.47
2022-10-28T02:51:47.902Z,101289.41
2022-10-28T02:54:18.414Z,101292.59
2022-10-28T02:56:52.596Z,101300.22
2022-10-28T02:59:20.439Z,101296.78
2022-10-28T03:01:48.623Z,101281.53
2022-10-28T03:04:16.668Z,101281.41
2022-10-28T03:06:45.876Z,101282.69
2022-10-28T03:09:13.772Z,101274.03
2022-10-28T03:11:41.518Z,101265.28
2022-10-28T03:14:11.957Z,101269.63
2022-10-28T03:16:42.292Z,101261.84
2022-10-28T03:19:10.079Z,101257.44
2022-10-28T03:21:37.744Z,101260.72
2022-10-28T03:24:07.673Z,101260.47
2022-10-28T03:26:35.470Z,101246.25
2022-10-28T03:29:06.908Z,101256.69
2022-10-28T03:31:37.823Z,101262.50
2022-10-28T03:34:05.692Z,101260.84
2022-10-28T03:36:33.871Z,101247.91
2022-10-28T03:39:01.695Z,101256.41
2022-10-28T03:41:34.053Z,101253.75
2022-10-28T03:44:09.099Z,101253.47
2022-10-28T03:46:36.877Z,101256.00
2022-10-28T03:49:05.015Z,101257.69
2022-10-28T03:51:32.805Z,101247.66
2022-10-28T03:54:03.589Z,101250.19
2022-10-28T03:56:31.286Z,101249.78
2022-10-28T03:59:00.590Z,101248.78
2022-10-28T04:01:43.701Z,101248.41
2022-10-28T04:04:11.516Z,101244.75
2022-10-28T04:06:39.270Z,101249.16
2022-10-28T04:09:12.791Z,101253.38
2022-10-28T04:11:40.551Z,101252.47
2022-10-28T04:14:09.859Z,101242.06
2022-10-28T04:16:37.741Z,101246.63
2022-10-28T04:19:05.475Z,101244.38
2022-10-28T04:21:33.572Z,101238.25
2022-10-28T04:24:01.359Z,101230.16
2022-10-28T04:26:32.256Z,101216.66
2022-10-28T04:29:00.158Z,101223.41
2022-10-28T04:31:32.414Z,101234.44
2022-10-28T04:34:00.216Z,101218.97
2022-10-28T04:36:27.970Z,101220.75
2022-10-28T04:38:55.683Z,101223.41
2022-10-28T04:41:23.466Z,101223.41
2022-10-28T04:43:51.152Z,101218.19
2022-10-28T04:46:18.877Z,101222.13
2022-10-28T04:48:51.681Z,101227.34
2022-10-28T04:51:19.606Z,101214.13
2022-10-28T04:53:49.596Z,101208.78
2022-10-28T04:56:20.411Z,101209.06
2022-10-28T04:58:48.673Z,101206.25
2022-10-28T05:01:16.784Z,101197.34
2022-10-28T05:03:44.535Z,101193.44
2022-10-28T05:06:13.609Z,101189.59
2022-10-28T05:08:41.291Z,101185.94
2022-10-28T05:11:11.432Z,101160.81
2022-10-28T05:13:39.158Z,101182.16
2022-10-28T05:16:08.027Z,101187.84
2022-10-28T05:18:35.824Z,101190.41
2022-10-28T05:21:03.829Z,101195.59
2022-10-28T05:23:33.099Z,101192.53
2022-10-28T05:26:00.765Z,101188.50
2022-10-28T05:28:28.794Z,101200.81
2022-10-28T05:30:56.651Z,101180.91
2022-10-28T05:33:27.516Z,101189.63
2022-10-28T05:35:55.292Z,101187.50
2022-10-28T05:38:25.571Z,101187.25
2022-10-28T05:40:57.393Z,101186.72
2022-10-28T05:43:25.128Z,101179.50
2022-10-28T05:45:59.245Z,101175.94
2022-10-28T05:48:26.780Z,101178.06
2022-10-28T05:51:00.457Z,101166.38
2022-10-28T05:53:29.835Z,101168.19
2022-10-28T05:55:58.978Z,101173.81
2022-10-28T05:58:26.663Z,101168.97
2022-10-28T06:00:54.456Z,101178.09
2022-10-28T06:03:24.088Z,101175.31
2022-10-28T06:05:55.083Z,101174.31
2022-10-28T06:08:22.784Z,101169.09
2022-10-28T06:10:54.943Z,101177.84
2022-10-28T06:13:24.636Z,101175.56
2022-10-28T06:15:54.251Z,101169.47
2022-10-28T06:18:23.472Z,101169.72
2022-10-28T06:20:53.592Z,101168.47
2022-10-28T06:23:21.841Z,101169.84
2022-10-28T06:25:51.475Z,101174.19
2022-10-28T06:28:19.285Z,101175.03
2022-10-28T06:30:48.542Z,101172.78
2022-10-28T06:33:22.580Z,101181.41
2022-10-28T06:35:50.446Z,101187.50
2022-10-28T06:38:18.258Z,101187.00
2022-10-28T06:40:49.037Z,101199.19
2022-10-28T06:43:20.213Z,101209.81
2022-10-28T06:45:53.600Z,101204.72
2022-10-28T06:48:23.382Z,101204.84
2022-10-28T06:50:53.334Z,101212.56
2022-10-28T06:53:21.157Z,101215.31
2022-10-28T06:55:53.692Z,101186.53
2022-10-28T06:58:21.565Z,101194.09
2022-10-28T07:00:50.697Z,101212.78
2022-10-28T07:03:18.835Z,101225.50
2022-10-28T07:05:47.796Z,101219.63
2022-10-28T07:08:15.633Z,101224.44
2022-10-28T07:10:43.450Z,101224.19
2022-10-28T07:13:11.862Z,101230.28
2022-10-28T07:15:39.596Z,101236.38
2022-10-28T07:18:08.787Z,101234.88
2022-10-28T07:20:39.491Z,101240.22
2022-10-28T07:23:07.194Z,101242.63
2022-10-28T07:25:35.198Z,101248.97
2022-10-28T07:28:03.008Z,101236.50
2022-10-28T07:30:39.523Z,101240.69
2022-10-28T07:33:11.195Z,101234.06
2022-10-28T07:35:39.021Z,101209.72
2022-10-28T07:38:06.726Z,101220.34
2022-10-28T07:40:34.446Z,101219.03
2022-10-28T07:43:02.253Z,101222.72
2022-10-28T07:45:30.070Z,101219.50
2022-10-28T07:47:59.084Z,101222.31
2022-10-28T07:50:28.230Z,101221.00
2022-10-28T07:52:58.270Z,101234.22
2022-10-28T07:55:30.202Z,101237.34
2022-10-28T07:57:58.195Z,101243.44
2022-10-28T08:00:27.560Z,101233.38
2022-10-28T08:02:55.286Z,101238.00
2022-10-28T08:05:22.990Z,101242.16
2022-10-28T08:07:52.559Z,101240.41
2022-10-28T08:10:20.665Z,101242.94
2022-10-28T08:12:51.474Z,101241.97
2022-10-28T08:15:21.204Z,101241.25
2022-10-28T08:17:52.467Z,101240.25
2022-10-28T08:20:21.533Z,101241.63
2022-10-28T08:22:50.302Z,101221.56
2022-10-28T08:25:20.077Z,101239.88
2022-10-28T08:27:48.422Z,101243.31
2022-10-28T08:30:16.453Z,101237.47
2022-10-28T08:32:44.182Z,101231.56
2022-10-28T08:35:12.152Z,101230.91
2022-10-28T08:37:39.940Z,101237.78
2022-10-28T08:40:12.642Z,101221.06
2022-10-28T08:42:48.600Z,101223.16
2022-10-28T08:45:24.310Z,101236.25
2022-10-28T08:48:06.153Z,101232.38
2022-10-28T08:50:41.148Z,101226.81
2022-10-28T08:53:20.537Z,101228.63
2022-10-28T08:55:49.776Z,101234.59
2022-10-28T08:58:23.722Z,101237.47
2022-10-28T09:00:54.100Z,101228.50
2022-10-28T09:03:29.383Z,101218.00
2022-10-28T09:06:03.014Z,101230.84
2022-10-28T09:08:35.012Z,101224.84
2022-10-28T09:11:09.871Z,101227.38
2022-10-28T09:13:56.905Z,101224.38
2022-10-28T09:16:38.235Z,101219.59
2022-10-28T09:19:15.497Z,101227.25
2022-10-28T09:21:49.570Z,101221.97
2022-10-28T09:24:20.003Z,101225.84
2022-10-28T09:26:55.304Z,101227.16
2022-10-28T09:29:44.121Z,101232.03
2022-10-28T09:32:26.946Z,101225.13
2022-10-28T09:35:00.606Z,101230.75
2022-10-28T09:37:33.621Z,101227.50
2022-10-28T09:40:23.196Z,101218.03
2022-10-28T09:43:02.772Z,101227.88
2022-10-28T09:45:34.397Z,101213.19
2022-10-28T09:48:11.465Z,101226.91
2022-10-28T09:50:40.709Z,101228.09
2022-10-28T09:53:15.745Z,101223.19
2022-10-28T09:55:44.233Z,101221.16
2022-10-28T09:58:14.940Z,101225.88
2022-10-28T10:00:44.049Z,101230.63
2022-10-28T10:03:27.484Z,101217.16
2022-10-28T10:06:01.064Z,101212.94
2022-10-28T10:08:31.196Z,101211.94
2022-10-28T10:11:05.257Z,101207.72
2022-10-28T10:13:44.872Z,101195.00
2022-10-28T10:16:19.055Z,101196.59
2022-10-28T10:18:52.266Z,101195.34
2022-10-28T10:21:44.415Z,101186.56
2022-10-28T10:24:26.214Z,101189.63
2022-10-28T10:26:55.720Z,101176.22
2022-10-28T10:29:27.035Z,101186.16
2022-10-28T10:32:17.645Z,101181.41
2022-10-28T10:34:48.742Z,101182.66
2022-10-28T10:37:28.420Z,101173.56
2022-10-28T10:40:04.798Z,101178.19
2022-10-28T10:42:39.257Z,101177.66
2022-10-28T10:45:24.615Z,101184.81
2022-10-28T10:48:14.267Z,101185.19
2022-10-28T10:50:47.965Z,101182.72
2022-10-28T10:53:20.841Z,101187.38
2022-10-28T10:55:54.457Z,101177.94
2022-10-28T10:58:24.695Z,101179.78
2022-10-28T11:00:54.552Z,101183.31
2022-10-28T11:03:28.168Z,101184.22
2022-10-28T11:08:50.119Z,101161.59
2022-10-28T11:11:21.855Z,101164.94
2022-10-28T11:14:03.196Z,101152.84
2022-10-28T11:16:49.084Z,101146.56
2022-10-28T11:19:22.032Z,101158.06
2022-10-28T11:22:11.421Z,101146.69
2022-10-28T11:24:51.393Z,101144.47
2022-10-28T11:27:32.838Z,101149.16
2022-10-28T11:30:01.841Z,101154.47
2022-10-28T11:32:45.251Z,101149.41
2022-10-28T11:36:01.659Z,101146.84
2022-10-28T11:38:45.979Z,101143.47
2022-10-28T11:41:20.617Z,101149.41
2022-10-28T11:43:54.979Z,101150.41
2022-10-28T11:46:45.894Z,101145.50
2022-10-28T11:49:42.626Z,101142.31
2022-10-28T11:52:28.905Z,101144.19
2022-10-28T11:55:10.280Z,101144.59
2022-10-28T11:57:52.376Z,101137.41
2022-10-28T12:00:44.659Z,101140.31
2022-10-28T12:03:41.599Z,101137.19
2022-10-28T12:06:17.846Z,101129.44
2022-10-28T12:14:35.618Z,101124.44
2022-10-28T12:17:12.908Z,101115.63
2022-10-28T12:19:49.087Z,101128.53
2022-10-28T12:22:25.992Z,101117.38
2022-10-28T12:24:57.821Z,101124.44
2022-10-28T12:27:30.895Z,101120.72
2022-10-28T12:30:09.132Z,101129.66
2022-10-28T12:32:41.265Z,101121.16
2022-10-28T12:35:17.288Z,101135.56
2022-10-28T12:38:04.285Z,101142.16
2022-10-28T12:40:42.646Z,101137.63
2022-10-28T12:43:21.225Z,101135.59
2022-10-28T12:45:50.000Z,101116.97
2022-10-28T12:48:23.414Z,101125.72
2022-10-28T12:50:55.481Z,101129.63
2022-10-28T12:53:32.284Z,101119.28
2022-10-28T12:56:02.972Z,101114.94
2022-10-28T12:58:34.874Z,101119.78
2022-10-28T13:01:13.421Z,101119.78
2022-10-28T13:03:41.690Z,101115.44
2022-10-28T13:06:44.626Z,101111.13
2022-10-28T13:09:39.485Z,101106.38
2022-10-28T13:12:36.769Z,101115.75
2022-10-28T13:15:30.721Z,101104.53
2022-10-28T13:18:47.464Z,101113.91
2022-10-28T13:21:48.866Z,101104.34
2022-10-28T13:24:22.217Z,101099.13
2022-10-28T13:26:50.561Z,101099.41
2022-10-28T13:29:23.555Z,101097.53
2022-10-28T13:31:52.050Z,101100.19
2022-10-28T13:34:22.871Z,101111.25
2022-10-28T13:36:57.951Z,101102.59
2022-10-28T13:39:42.688Z,101098.97
2022-10-28T13:42:56.776Z,101092.63
2022-10-28T13:45:52.517Z,101088.22
2022-10-28T13:49:04.660Z,101087.13
2022-10-28T13:52:26.728Z,101086.19
2022-10-28T13:55:27.723Z,101093.78
2022-10-28T13:58:05.193Z,101091.16
2022-10-28T14:00:38.593Z,101091.75
2022-10-28T14:03:24.445Z,101081.00
2022-10-28T14:05:58.917Z,101092.22
2022-10-28T14:08:34.502Z,101092.22
2022-10-28T14:11:06.802Z,101086.06
2022-10-28T14:13:53.040Z,101085.00
2022-10-28T14:16:27.085Z,101075.16
2022-10-28T14:19:01.310Z,101084.81
2022-10-28T14:21:47.937Z,101089.03
2022-10-28T14:24:39.849Z,101092.31
2022-10-28T14:27:40.796Z,101081.69
2022-10-28T14:30:23.567Z,101083.44
2022-10-28T14:33:22.287Z,101084.88
2022-10-28T14:36:11.054Z,101083.22
2022-10-28T14:39:10.839Z,101081.09
2022-10-28T14:42:00.105Z,101073.91
2022-10-28T14:45:06.004Z,101080.47
2022-10-28T14:48:01.174Z,101078.53
2022-10-28T14:50:40.732Z,101074.91
2022-10-28T14:53:17.489Z,101079.06
2022-10-28T14:55:59.015Z,101062.34
2022-10-28T14:58:31.623Z,101076.66
2022-10-28T15:01:21.895Z,101076.31
2022-10-28T15:03:53.151Z,101071.72
2022-10-28T15:06:26.024Z,101068.91
2022-10-28T15:08:56.408Z,101066.34
2022-10-28T15:11:24.879Z,101060.56
2022-10-28T15:13:53.793Z,101069.59
2022-10-28T15:16:23.581Z,101071.88
2022-10-28T15:18:54.465Z,101070.13
2022-10-28T15:21:23.995Z,101071.69
2022-10-28T15:24:09.214Z,101067.34
2022-10-28T15:26:37.150Z,101076.50
2022-10-28T15:29:05.320Z,101075.44
2022-10-28T15:32:10.771Z,101076.75
2022-10-28T15:34:38.933Z,101074.81
2022-10-28T15:37:08.675Z,101070.91
2022-10-28T15:39:39.463Z,101082.09
2022-10-28T15:42:32.717Z,101074.13
2022-10-28T15:45:01.013Z,101076.53
2022-10-28T15:47:32.852Z,101065.03
2022-10-28T15:50:04.104Z,101074.19
2022-10-28T15:52:36.949Z,101069.66
2022-10-28T15:55:35.618Z,101067.44
2022-10-28T15:58:35.597Z,101071.28
2022-10-28T16:01:03.358Z,101067.56
2022-10-28T16:03:43.146Z,101068.34
2022-10-28T16:06:26.843Z,101071.88
2022-10-28T16:09:16.893Z,101068.72
2022-10-28T16:11:49.425Z,101078.28
2022-10-28T16:14:39.482Z,101071.22
2022-10-28T16:17:18.067Z,101061.78
2022-10-28T16:19:51.867Z,101078.50
2022-10-28T16:22:20.714Z,101084.31
2022-10-28T16:24:49.776Z,101083.34
2022-10-28T16:27:25.847Z,101080.56
2022-10-28T16:29:54.503Z,101089.03
2022-10-28T16:32:27.772Z,101092.47
2022-10-28T16:34:56.650Z,101086.50
2022-10-28T16:37:26.932Z,101087.09
2022-10-28T16:39:55.456Z,101090.88
2022-10-28T16:42:30.466Z,101113.81
2022-10-28T16:44:58.536Z,101086.66
2022-10-28T16:47:27.476Z,101105.25
2022-10-28T16:49:57.666Z,101103.19
2022-10-28T16:52:28.509Z,101100.63
2022-10-28T16:54:57.148Z,101105.75
2022-10-28T16:57:26.572Z,101107.00
2022-10-28T16:59:55.092Z,101117.16
2022-10-28T17:02:28.184Z,101124.59
2022-10-28T17:05:05.004Z,101118.03
2022-10-28T17:07:32.965Z,101125.59
2022-10-28T17:10:02.883Z,101120.88
2022-10-28T17:12:32.710Z,101124.59
2022-10-28T17:15:00.476Z,101113.22
2022-10-28T17:17:28.185Z,101134.31
2022-10-28T17:19:55.923Z,101131.47
2022-10-28T17:22:31.557Z,101138.94
2022-10-28T17:24:59.418Z,101137.75
2022-10-28T17:27:27.166Z,101141.97
2022-10-28T17:29:56.291Z,101143.81
2022-10-28T17:32:24.405Z,101142.97
2022-10-28T17:34:52.379Z,101147.19
2022-10-28T17:37:20.116Z,101154.84
2022-10-28T17:39:47.873Z,101152.19
2022-10-28T17:42:18.043Z,101153.19
2022-10-28T17:44:46.100Z,101160.53
2022-10-28T17:47:30.304Z,101156.22
2022-10-28T17:49:59.597Z,101151.69
2022-10-28T17:52:27.425Z,101154.25
2022-10-28T17:54:57.735Z,101156.00
2022-10-28T17:57:28.516Z,101156.69
2022-10-28T17:59:58.688Z,101162.47
2022-10-28T18:02:36.882Z,101163.94
2022-10-28T18:05:04.855Z,101169.91
2022-10-28T18:07:32.618Z,101175.81
2022-10-28T18:10:07.623Z,101175.81
2022-10-28T18:12:35.384Z,101177.47
2022-10-28T18:15:03.294Z,101183.38
2022-10-28T18:17:30.995Z,101178.03
2022-10-28T18:20:14.002Z,101190.03
2022-10-28T18:22:41.733Z,101195.91
2022-10-28T18:25:10.159Z,101189.72
2022-10-28T18:27:38.334Z,101192.97
2022-10-28T18:30:09.395Z,101188.53
2022-10-28T18:32:37.575Z,101196.19
2022-10-28T18:35:07.654Z,101196.09
2022-10-28T18:37:42.498Z,101182.78
2022-10-28T18:40:18.148Z,101194.75
2022-10-28T18:42:45.874Z,101204.63
2022-10-28T18:45:13.644Z,101198.56
2022-10-28T18:47:41.657Z,101195.69
2022-10-28T18:50:16.756Z,101207.44
2022-10-28T18:52:44.492Z,101195.34
2022-10-28T18:55:18.540Z,101209.91
2022-10-28T18:57:46.150Z,101209.91
2022-10-28T19:00:19.097Z,101211.00
2022-10-28T19:02:52.157Z,101207.66
2022-10-28T19:05:21.369Z,101211.19
2022-10-28T19:08:11.002Z,101213.97
2022-10-28T19:10:39.173Z,101210.63
2022-10-28T19:13:10.168Z,101224.38
2022-10-28T19:15:42.049Z,101225.28
2022-10-28T19:18:11.456Z,101225.94
2022-10-28T19:20:52.474Z,101232.72
2022-10-28T19:23:23.724Z,101236.16
2022-10-28T19:25:57.591Z,101245.59
2022-10-28T19:28:25.683Z,101248.72
2022-10-28T19:31:01.943Z,101225.44
2022-10-28T19:33:32.061Z,101248.50
2022-10-28T19:36:06.983Z,101247.06
2022-10-28T19:39:01.560Z,101258.38
2022-10-28T19:41:38.976Z,101263.03
2022-10-28T19:44:09.885Z,101264.69
2022-10-28T19:46:37.856Z,101266.25
2022-10-28T19:49:07.644Z,101250.09
2022-10-28T19:51:38.576Z,101277.56
2022-10-28T19:54:08.940Z,101280.81
2022-10-28T19:56:37.613Z,101280.28
2022-10-28T19:59:06.780Z,101279.94
2022-10-28T20:01:36.560Z,101282.84
2022-10-28T20:04:04.887Z,101283.16
2022-10-28T20:06:34.395Z,101285.59
2022-10-28T20:09:04.428Z,101277.94
2022-10-28T20:11:33.930Z,101290.06
2022-10-28T20:14:04.231Z,101287.84
2022-10-28T20:16:33.164Z,101284.50
2022-10-28T20:19:01.111Z,101301.25
2022-10-28T20:21:35.179Z,101312.56
2022-10-28T20:24:05.327Z,101311.66
2022-10-28T20:26:35.102Z,101321.09
2022-10-28T20:29:02.968Z,101322.66
2022-10-28T20:31:32.594Z,101320.75
2022-10-28T20:34:03.532Z,101337.53
2022-10-28T20:36:32.775Z,101321.31
2022-10-28T20:39:02.775Z,101334.53
2022-10-28T20:41:33.236Z,101337.09
2022-10-28T20:44:01.550Z,101356.72
2022-10-28T20:46:29.530Z,101348.19
2022-10-28T20:48:57.354Z,101353.50
2022-10-28T20:51:27.269Z,101357.50
2022-10-28T20:53:55.200Z,101365.25
2022-10-28T20:56:24.358Z,101375.16
2022-10-28T20:58:54.865Z,101375.44
2022-10-28T21:01:24.814Z,101386.09
2022-10-28T21:03:54.525Z,101397.19
2022-10-28T21:06:29.042Z,101404.06
2022-10-28T21:08:59.393Z,101398.31
2022-10-28T21:11:29.143Z,101392.31
2022-10-28T21:14:04.537Z,101384.09
2022-10-28T21:16:32.555Z,101392.97
2022-10-28T21:19:00.627Z,101392.97
2022-10-28T21:21:29.231Z,101404.72
2022-10-28T21:24:00.027Z,101405.47
2022-10-28T21:26:27.871Z,101409.56
2022-10-28T21:28:56.354Z,101402.72
2022-10-28T21:31:25.910Z,101404.38
2022-10-28T21:33:54.090Z,101405.47
2022-10-28T21:36:25.043Z,101409.81
2022-10-28T21:38:55.963Z,101400.53
2022-10-28T21:41:25.319Z,101395.97
2022-10-28T21:43:54.206Z,101392.06
2022-10-28T21:46:23.403Z,101384.09
2022-10-28T21:48:53.663Z,101402.03
2022-10-28T21:51:21.401Z,101397.38
2022-10-28T21:53:49.223Z,101409.75
2022-10-28T21:56:19.452Z,101398.31
2022-10-28T21:58:48.777Z,101398.84
2022-10-28T22:01:19.149Z,101401.03
2022-10-28T22:03:47.264Z,101405.81
2022-10-28T22:06:16.864Z,101404.56
2022-10-28T22:08:44.855Z,101391.34
2022-10-28T22:11:14.665Z,101404.50
2022-10-28T22:13:42.832Z,101400.09
2022-10-28T22:16:15.893Z,101408.38
2022-10-28T22:18:44.698Z,101391.00
2022-10-28T22:21:14.833Z,101414.78
2022-10-28T22:23:44.081Z,101410.06
2022-10-28T22:26:17.525Z,101393.59
2022-10-28T22:28:47.732Z,101425.44
2022-10-28T22:31:17.605Z,101419.06
2022-10-28T22:33:50.750Z,101427.28
2022-10-28T22:36:20.308Z,101424.47
2022-10-28T22:38:50.571Z,101425.78
2022-10-28T22:41:20.018Z,101436.50
2022-10-28T22:43:50.522Z,101427.06
2022-10-28T22:46:20.936Z,101446.16
2022-10-28T22:48:52.197Z,101441.06
2022-10-28T22:51:20.073Z,101457.13
2022-10-28T22:53:49.351Z,101464.72
2022-10-28T22:56:21.780Z,101449.13
2022-10-28T22:58:53.084Z,101440.19
2022-10-28T23:01:21.923Z,101444.63
2022-10-28T23:03:52.218Z,101450.63
2022-10-28T23:06:21.669Z,101447.97
2022-10-28T23:08:54.991Z,101452.28
2022-10-28T23:11:23.886Z,101435.75
2022-10-28T23:13:54.827Z,101441.59
2022-10-28T23:16:24.074Z,101455.13
2022-10-28T23:18:53.355Z,101452.31
2022-10-28T23:21:23.075Z,101451.19
2022-10-28T23:23:55.521Z,101456.72
2022-10-28T23:26:25.829Z,101448.84
2022-10-28T23:28:56.117Z,101448.59
2022-10-28T23:31:27.434Z,101462.00
2022-10-28T23:33:56.479Z,101452.03
2022-10-28T23:36:24.590Z,101463.97
2022-10-28T23:38:53.968Z,101458.03
2022-10-28T23:41:21.644Z,101452.41
2022-10-28T23:43:49.761Z,101452.63
2022-10-28T23:46:17.969Z,101442.66
2022-10-28T23:48:45.857Z,101447.00
2022-10-28T23:51:20.952Z,101452.31
2022-10-28T23:53:48.751Z,101454.97
2022-10-28T23:56:21.218Z,101450.03
2022-10-28T23:58:49.240Z,101455.88
